Time;durP1;ratioP1;P1;durP2;ratioP2;P2;SDS_P1;SDS_P2;PMS_P1;PMS_P2;Temp;Humidity;BMP_temperature;BMP_pressure;BME280_temperature;BME280_humidity;BME280_pressure;Samples;Min_cycle;Max_cycle;Signal;HPM_P1;HPM_P2
2024/01/12 00:00:29;;;;;;;23.77;11.60;;;;;;;;;;4973771;28;20038;-77
2024/01/12 00:02:55;;;;;;;28.93;12.60;;;;;;;;;;4976689;28;20030;-77
2024/01/12 00:05:20;;;;;;;30.20;13.95;;;;;;;;;;4982566;28;20031;-76
2024/01/12 00:07:45;;;;;;;22.90;11.03;;;;;;;;;;4982813;28;20053;-77
2024/01/12 00:10:10;;;;;;;26.20;12.67;;;;;;;;;;4971249;28;20047;-77
2024/01/12 00:12:35;;;;;;;29.50;12.23;;;;;;;;;;4979694;28;20045;-77
2024/01/12 00:15:02;;;;;;;23.50;11.23;;;;;;;;;;4978570;28;20027;-77
2024/01/12 00:17:28;;;;;;;25.13;11.60;;;;;;;;;;4977040;28;20039;-77
2024/01/12 00:19:53;;;;;;;27.53;12.30;;;;;;;;;;4965416;28;20030;-77
2024/01/12 00:22:18;;;;;;;24.30;12.97;;;;;;;;;;4968753;28;20406;-77
2024/01/12 00:24:43;;;;;;;29.95;13.93;;;;;;;;;;4979992;28;20034;-77
2024/01/12 00:27:08;;;;;;;22.33;11.40;;;;;;;;;;4980942;28;20066;-77
2024/01/12 00:29:33;;;;;;;27.37;12.93;;;;;;;;;;4978643;28;20031;-77
2024/01/12 00:31:59;;;;;;;25.83;12.63;;;;;;;;;;4982821;28;20038;-78
2024/01/12 00:34:24;;;;;;;29.30;13.00;;;;;;;;;;4978412;28;20026;-77
2024/01/12 00:36:53;;;;;;;29.90;13.93;;;;;;;;;;4981451;28;20384;-77
2024/01/12 00:39:18;;;;;;;28.67;13.27;;;;;;;;;;4985380;28;20097;-77
2024/01/12 00:41:43;;;;;;;29.43;13.03;;;;;;;;;;4967309;28;20035;-78
2024/01/12 00:44:08;;;;;;;31.27;15.45;;;;;;;;;;4979022;28;20035;-77
2024/01/12 00:46:34;;;;;;;27.83;14.17;;;;;;;;;;4968692;28;20187;-77
2024/01/12 00:48:59;;;;;;;23.87;12.00;;;;;;;;;;4981162;28;20030;-77
2024/01/12 00:51:24;;;;;;;29.53;13.80;;;;;;;;;;4990287;28;20046;-77
2024/01/12 00:53:50;;;;;;;26.07;12.57;;;;;;;;;;4978878;28;20038;-76
2024/01/12 00:56:15;;;;;;;24.83;12.40;;;;;;;;;;4973274;28;20037;-77
2024/01/12 00:58:40;;;;;;;23.63;11.05;;;;;;;;;;4976575;28;20125;-77
2024/01/12 01:01:05;;;;;;;26.70;13.55;;;;;;;;;;4979894;28;20054;-77
2024/01/12 01:03:31;;;;;;;20.33;10.48;;;;;;;;;;4983284;28;20038;-77
2024/01/12 01:05:56;;;;;;;22.70;11.23;;;;;;;;;;4980069;28;20030;-78
2024/01/12 01:08:21;;;;;;;23.42;11.48;;;;;;;;;;4974132;28;20502;-78
2024/01/12 01:10:46;;;;;;;22.70;9.88;;;;;;;;;;4980495;28;20031;-77
2024/01/12 01:13:12;;;;;;;21.27;11.90;;;;;;;;;;4976177;28;20038;-78
2024/01/12 01:15:38;;;;;;;21.10;10.77;;;;;;;;;;4972342;28;20027;-77
2024/01/12 01:18:03;;;;;;;22.60;12.40;;;;;;;;;;4984927;28;20117;-76
2024/01/12 01:20:28;;;;;;;23.67;11.00;;;;;;;;;;4985394;28;20113;-76
2024/01/12 01:22:53;;;;;;;24.05;11.90;;;;;;;;;;4980858;28;20119;-76
2024/01/12 01:25:18;;;;;;;23.83;11.80;;;;;;;;;;4977396;28;20036;-77
2024/01/12 01:27:44;;;;;;;28.90;12.40;;;;;;;;;;4982543;28;20104;-77
2024/01/12 01:30:09;;;;;;;25.83;11.13;;;;;;;;;;4974836;28;20030;-77
2024/01/12 01:32:34;;;;;;;28.15;13.27;;;;;;;;;;4981488;28;20097;-77
2024/01/12 01:35:00;;;;;;;23.23;11.50;;;;;;;;;;4978708;28;20468;-77
2024/01/12 01:37:25;;;;;;;25.67;12.43;;;;;;;;;;4984692;28;20062;-77
2024/01/12 01:39:50;;;;;;;24.37;12.00;;;;;;;;;;4979291;28;21419;-76
2024/01/12 01:42:16;;;;;;;23.23;12.23;;;;;;;;;;4975237;28;20041;-76
2024/01/12 01:44:41;;;;;;;30.80;12.67;;;;;;;;;;4980330;28;20157;-77
2024/01/12 01:47:06;;;;;;;26.60;12.27;;;;;;;;;;4984374;28;20125;-77
2024/01/12 01:49:31;;;;;;;25.80;12.80;;;;;;;;;;4979772;28;20520;-77
2024/01/12 01:51:57;;;;;;;24.63;11.83;;;;;;;;;;4983672;28;20061;-78
2024/01/12 01:54:22;;;;;;;27.20;12.63;;;;;;;;;;4975944;28;20092;-77
2024/01/12 01:56:48;;;;;;;23.53;11.57;;;;;;;;;;4984039;28;20054;-77
2024/01/12 01:59:13;;;;;;;25.57;11.90;;;;;;;;;;4983994;28;20038;-77
2024/01/12 02:01:38;;;;;;;21.70;10.83;;;;;;;;;;4971915;28;20035;-77
2024/01/12 02:04:04;;;;;;;23.53;11.37;;;;;;;;;;4977953;28;20039;-77
2024/01/12 02:06:31;;;;;;;24.17;11.63;;;;;;;;;;4979348;28;20125;-77
2024/01/12 02:08:56;;;;;;;22.87;10.70;;;;;;;;;;4974909;28;20169;-77
2024/01/12 02:11:22;;;;;;;26.37;12.07;;;;;;;;;;4986877;28;20113;-77
2024/01/12 02:13:47;;;;;;;24.63;11.70;;;;;;;;;;4979529;28;20039;-77
2024/01/12 02:16:12;;;;;;;24.53;12.20;;;;;;;;;;4982681;28;20045;-77
2024/01/12 02:18:37;;;;;;;22.57;10.77;;;;;;;;;;4980906;28;20038;-78
2024/01/12 02:21:02;;;;;;;25.80;11.53;;;;;;;;;;4979483;28;20023;-78
2024/01/12 02:23:28;;;;;;;24.90;11.77;;;;;;;;;;4979767;28;20030;-77
2024/01/12 02:25:53;;;;;;;25.77;12.70;;;;;;;;;;4976682;28;20058;-77
2024/01/12 02:28:18;;;;;;;23.73;12.47;;;;;;;;;;4986340;28;20041;-77
2024/01/12 02:30:44;;;;;;;28.17;12.90;;;;;;;;;;4983925;28;20062;-77
2024/01/12 02:33:09;;;;;;;26.13;12.70;;;;;;;;;;4964608;28;20109;-78
2024/01/12 02:35:34;;;;;;;24.53;11.33;;;;;;;;;;4974817;28;20035;-77
2024/01/12 02:38:00;;;;;;;28.27;12.30;;;;;;;;;;4979952;28;20031;-77
2024/01/12 02:40:25;;;;;;;25.60;10.53;;;;;;;;;;4982079;28;20077;-77
2024/01/12 02:42:50;;;;;;;26.67;12.70;;;;;;;;;;4978191;28;20069;-77
2024/01/12 02:45:15;;;;;;;24.93;11.60;;;;;;;;;;4978828;28;20118;-78
2024/01/12 02:47:41;;;;;;;28.37;12.47;;;;;;;;;;4979406;28;20046;-77
2024/01/12 02:50:07;;;;;;;26.53;12.17;;;;;;;;;;4977339;28;20050;-77
2024/01/12 02:52:35;;;;;;;28.30;12.57;;;;;;;;;;4984198;28;20090;-77
2024/01/12 02:55:04;;;;;;;25.77;12.07;;;;;;;;;;4978458;28;20030;-77
2024/01/12 02:57:30;;;;;;;28.07;12.40;;;;;;;;;;4983498;28;20038;-77
2024/01/12 02:59:55;;;;;;;26.83;12.90;;;;;;;;;;4978370;28;20057;-77
2024/01/12 03:02:20;;;;;;;22.57;11.30;;;;;;;;;;4963950;28;20038;-77
2024/01/12 03:04:45;;;;;;;28.73;13.63;;;;;;;;;;4973165;28;20042;-77
2024/01/12 03:07:11;;;;;;;28.50;12.87;;;;;;;;;;4979946;28;20056;-77
2024/01/12 03:09:36;;;;;;;26.10;11.97;;;;;;;;;;4979983;28;20065;-77
2024/01/12 03:12:01;;;;;;;22.23;11.43;;;;;;;;;;4979079;28;20027;-78
2024/01/12 03:14:26;;;;;;;26.67;12.13;;;;;;;;;;4977005;28;20177;-78
2024/01/12 03:16:51;;;;;;;28.27;12.60;;;;;;;;;;4979743;28;20042;-77
2024/01/12 03:19:16;;;;;;;28.70;13.27;;;;;;;;;;4973239;28;20384;-77
2024/01/12 03:21:42;;;;;;;24.73;10.70;;;;;;;;;;4977365;28;20030;-77
2024/01/12 03:24:07;;;;;;;27.20;12.80;;;;;;;;;;4979113;28;20414;-77
2024/01/12 03:26:37;;;;;;;23.40;10.67;;;;;;;;;;4980243;28;20034;-77
2024/01/12 03:29:02;;;;;;;29.30;12.70;;;;;;;;;;4982819;28;20038;-77
2024/01/12 03:31:27;;;;;;;27.33;12.83;;;;;;;;;;4975795;28;20027;-77
2024/01/12 03:33:52;;;;;;;23.60;11.70;;;;;;;;;;4981558;28;20027;-77
2024/01/12 03:36:18;;;;;;;23.17;11.00;;;;;;;;;;4986301;28;20030;-77
2024/01/12 03:38:44;;;;;;;25.17;12.33;;;;;;;;;;4981670;28;20031;-77
2024/01/12 03:41:09;;;;;;;26.07;11.07;;;;;;;;;;4978959;28;20033;-77
2024/01/12 03:43:34;;;;;;;23.37;10.73;;;;;;;;;;4961768;28;20567;-77
2024/01/12 03:45:59;;;;;;;27.40;11.57;;;;;;;;;;4963274;28;20030;-77
2024/01/12 03:48:25;;;;;;;21.57;9.60;;;;;;;;;;4982761;28;20038;-77
2024/01/12 03:50:50;;;;;;;24.87;10.77;;;;;;;;;;4986680;28;20101;-76
2024/01/12 03:53:15;;;;;;;25.13;11.17;;;;;;;;;;4978918;28;20407;-77
2024/01/12 03:55:40;;;;;;;23.50;11.10;;;;;;;;;;4975864;28;20114;-77
2024/01/12 03:58:05;;;;;;;23.50;11.00;;;;;;;;;;4981701;28;20105;-77
2024/01/12 04:00:31;;;;;;;26.33;11.20;;;;;;;;;;4981648;28;20034;-77
2024/01/12 04:02:56;;;;;;;22.03;10.90;;;;;;;;;;4975801;28;20188;-78
2024/01/12 04:05:21;;;;;;;24.27;10.63;;;;;;;;;;4984635;28;20034;-77
2024/01/12 04:07:46;;;;;;;24.43;11.57;;;;;;;;;;4980522;28;20046;-77
2024/01/12 04:10:11;;;;;;;26.47;11.37;;;;;;;;;;4970984;28;20109;-78
2024/01/12 04:12:38;;;;;;;21.50;10.20;;;;;;;;;;4977753;28;20034;-77
2024/01/12 04:15:03;;;;;;;23.10;10.77;;;;;;;;;;4972019;28;20118;-77
2024/01/12 04:17:28;;;;;;;29.10;12.33;;;;;;;;;;4965677;28;20125;-77
2024/01/12 04:19:54;;;;;;;24.50;9.77;;;;;;;;;;4981513;28;20039;-77
2024/01/12 04:22:19;;;;;;;26.67;11.73;;;;;;;;;;4978688;28;20185;-77
2024/01/12 04:24:44;;;;;;;28.20;12.03;;;;;;;;;;4974176;28;20035;-77
2024/01/12 04:27:09;;;;;;;27.43;12.07;;;;;;;;;;4978803;28;20555;-77
2024/01/12 04:29:34;;;;;;;27.07;11.07;;;;;;;;;;4973977;28;20034;-78
2024/01/12 04:32:00;;;;;;;24.30;10.90;;;;;;;;;;4982578;28;20039;-78
2024/01/12 04:34:25;;;;;;;27.43;10.93;;;;;;;;;;4983177;28;20043;-78
2024/01/12 04:36:50;;;;;;;26.40;12.03;;;;;;;;;;4982939;28;20037;-78
2024/01/12 04:39:15;;;;;;;27.67;12.37;;;;;;;;;;4978454;28;20059;-79
2024/01/12 04:41:40;;;;;;;27.35;13.35;;;;;;;;;;4984530;28;20030;-78
2024/01/12 04:44:05;;;;;;;28.20;12.03;;;;;;;;;;4976159;28;20558;-77
2024/01/12 04:46:31;;;;;;;26.80;11.70;;;;;;;;;;4986510;28;20037;-78
2024/01/12 04:48:56;;;;;;;22.87;9.67;;;;;;;;;;4967454;28;20495;-77
2024/01/12 04:51:21;;;;;;;23.70;10.90;;;;;;;;;;4977531;28;20026;-78
2024/01/12 04:53:47;;;;;;;22.77;9.80;;;;;;;;;;4976746;28;20555;-78
2024/01/12 04:56:12;;;;;;;19.15;9.73;;;;;;;;;;4980154;28;20097;-78
2024/01/12 04:58:38;;;;;;;27.33;10.85;;;;;;;;;;4983402;28;20122;-78
2024/01/12 05:01:03;;;;;;;19.38;9.50;;;;;;;;;;4984750;28;20073;-78
2024/01/12 05:03:29;;;;;;;22.25;11.70;;;;;;;;;;4981360;28;20057;-78
2024/01/12 05:05:54;;;;;;;22.67;10.50;;;;;;;;;;4981773;28;20030;-78
2024/01/12 05:08:19;;;;;;;25.80;12.15;;;;;;;;;;4985697;28;20030;-78
2024/01/12 05:10:44;;;;;;;26.35;11.52;;;;;;;;;;4985356;28;20026;-78
2024/01/12 05:13:10;;;;;;;22.10;10.80;;;;;;;;;;4965648;28;20551;-79
2024/01/12 05:15:35;;;;;;;30.77;11.88;;;;;;;;;;4987443;28;20518;-78
2024/01/12 05:18:00;;;;;;;22.15;9.40;;;;;;;;;;4985496;28;20066;-78
2024/01/12 05:20:25;;;;;;;25.50;11.02;;;;;;;;;;4987490;28;20133;-77
2024/01/12 05:22:51;;;;;;;26.33;11.48;;;;;;;;;;4984041;28;20129;-76
2024/01/12 05:25:16;;;;;;;26.27;11.88;;;;;;;;;;4976270;28;20034;-77
2024/01/12 05:27:41;;;;;;;22.70;11.35;;;;;;;;;;4991892;28;20070;-77
2024/01/12 05:30:06;;;;;;;24.60;10.30;;;;;;;;;;4989884;28;20076;-77
2024/01/12 05:32:32;;;;;;;23.38;11.23;;;;;;;;;;4983171;28;20107;-77
2024/01/12 05:34:57;;;;;;;22.38;10.25;;;;;;;;;;4980014;28;20034;-77
2024/01/12 05:37:22;;;;;;;23.33;11.43;;;;;;;;;;4988309;28;20034;-77
2024/01/12 05:39:48;;;;;;;21.15;9.82;;;;;;;;;;4984845;28;20062;-77
2024/01/12 05:42:13;;;;;;;23.38;10.70;;;;;;;;;;4983722;28;20031;-78
2024/01/12 05:44:38;;;;;;;24.17;10.73;;;;;;;;;;4978433;28;20640;-78
2024/01/12 05:47:03;;;;;;;23.20;10.07;;;;;;;;;;4984914;28;20109;-78
2024/01/12 05:49:28;;;;;;;17.88;8.43;;;;;;;;;;4983322;28;20104;-78
2024/01/12 05:51:53;;;;;;;21.27;9.52;;;;;;;;;;4979834;28;20030;-78
2024/01/12 05:54:19;;;;;;;20.17;9.57;;;;;;;;;;4987255;28;20042;-78
2024/01/12 05:56:44;;;;;;;20.10;9.43;;;;;;;;;;4980308;28;20093;-77
2024/01/12 05:59:09;;;;;;;17.83;8.48;;;;;;;;;;4987004;28;20092;-78
2024/01/12 06:01:34;;;;;;;24.40;11.15;;;;;;;;;;4974869;28;20034;-78
2024/01/12 06:04:00;;;;;;;21.05;9.43;;;;;;;;;;4976161;28;20035;-77
2024/01/12 06:06:25;;;;;;;22.17;10.80;;;;;;;;;;4982420;28;20514;-78
2024/01/12 06:08:50;;;;;;;19.02;9.75;;;;;;;;;;4987069;28;20460;-78
2024/01/12 06:11:16;;;;;;;17.38;9.15;;;;;;;;;;4969671;28;20039;-78
2024/01/12 06:13:41;;;;;;;18.80;8.13;;;;;;;;;;4976278;28;20038;-77
2024/01/12 06:16:06;;;;;;;17.17;9.07;;;;;;;;;;4976682;28;20149;-78
2024/01/12 06:18:31;;;;;;;15.73;8.13;;;;;;;;;;4979046;28;20042;-78
2024/01/12 06:20:56;;;;;;;17.27;8.93;;;;;;;;;;4980212;28;20030;-78
2024/01/12 06:23:22;;;;;;;16.40;7.78;;;;;;;;;;4982590;28;20034;-78
2024/01/12 06:25:47;;;;;;;16.58;8.32;;;;;;;;;;4979293;28;20026;-78
2024/01/12 06:28:13;;;;;;;16.20;7.93;;;;;;;;;;4983390;28;20038;-78
2024/01/12 06:30:38;;;;;;;15.43;8.50;;;;;;;;;;4985346;28;20069;-77
2024/01/12 06:33:04;;;;;;;17.00;8.10;;;;;;;;;;4960686;28;20089;-78
2024/01/12 06:35:29;;;;;;;15.73;8.52;;;;;;;;;;4974613;28;20582;-78
2024/01/12 06:37:54;;;;;;;15.98;8.35;;;;;;;;;;4982072;28;20113;-78
2024/01/12 06:40:19;;;;;;;17.58;9.38;;;;;;;;;;4979598;28;20049;-78
2024/01/12 06:42:44;;;;;;;15.15;7.65;;;;;;;;;;4981943;28;20065;-78
2024/01/12 06:45:13;;;;;;;16.70;8.35;;;;;;;;;;4984812;28;20064;-78
2024/01/12 06:47:38;;;;;;;15.68;8.38;;;;;;;;;;4978113;28;20100;-78
2024/01/12 06:50:03;;;;;;;18.33;9.45;;;;;;;;;;4979594;28;20034;-78
2024/01/12 06:52:31;;;;;;;15.48;7.82;;;;;;;;;;4985129;28;20042;-78
2024/01/12 06:54:57;;;;;;;17.33;8.93;;;;;;;;;;4976471;28;20035;-78
2024/01/12 06:57:22;;;;;;;14.30;7.18;;;;;;;;;;4980939;28;20526;-78
2024/01/12 06:59:47;;;;;;;17.00;8.48;;;;;;;;;;4978335;28;20039;-77
2024/01/12 07:02:12;;;;;;;20.58;10.90;;;;;;;;;;4979946;28;20039;-78
2024/01/12 07:04:37;;;;;;;19.75;9.43;;;;;;;;;;4980670;28;20038;-78
2024/01/12 07:07:03;;;;;;;17.02;9.07;;;;;;;;;;4983827;28;20030;-78
2024/01/12 07:09:28;;;;;;;16.40;8.02;;;;;;;;;;4978537;28;20034;-78
2024/01/12 07:11:53;;;;;;;15.77;8.02;;;;;;;;;;4979157;28;20404;-78
2024/01/12 07:14:19;;;;;;;14.43;7.95;;;;;;;;;;4976331;28;20062;-78
2024/01/12 07:16:44;;;;;;;13.55;7.50;;;;;;;;;;4973057;28;20041;-78
2024/01/12 07:19:09;;;;;;;14.75;8.05;;;;;;;;;;4981750;28;20037;-78
2024/01/12 07:21:34;;;;;;;15.70;7.47;;;;;;;;;;4984341;28;20039;-77
2024/01/12 07:24:00;;;;;;;14.75;7.68;;;;;;;;;;4976830;28;20031;-78
2024/01/12 07:26:25;;;;;;;14.65;7.40;;;;;;;;;;4976628;28;20026;-78
2024/01/12 07:28:51;;;;;;;15.00;8.85;;;;;;;;;;4977788;28;20436;-77
2024/01/12 07:31:16;;;;;;;14.60;8.13;;;;;;;;;;4987390;28;20034;-77
2024/01/12 07:33:41;;;;;;;15.18;7.95;;;;;;;;;;4979910;28;20319;-77
2024/01/12 07:36:07;;;;;;;18.58;9.23;;;;;;;;;;4977563;28;20070;-78
2024/01/12 07:38:33;;;;;;;15.20;8.57;;;;;;;;;;4964596;28;20038;-77
2024/01/12 07:40:58;;;;;;;18.15;9.27;;;;;;;;;;4980148;28;20037;-77
2024/01/12 07:43:23;;;;;;;15.93;8.88;;;;;;;;;;4977387;28;20034;-77
2024/01/12 07:45:49;;;;;;;17.00;8.98;;;;;;;;;;4975904;28;20041;-77
2024/01/12 07:48:14;;;;;;;19.58;9.43;;;;;;;;;;4981847;28;20047;-77
2024/01/12 07:50:39;;;;;;;19.23;9.70;;;;;;;;;;4987695;28;20479;-77
2024/01/12 07:53:05;;;;;;;18.50;9.63;;;;;;;;;;4981860;28;20121;-77
2024/01/12 07:55:30;;;;;;;17.73;8.93;;;;;;;;;;4980681;28;20031;-77
2024/01/12 07:57:55;;;;;;;18.77;10.18;;;;;;;;;;4980961;28;20030;-77
2024/01/12 08:00:20;;;;;;;20.38;9.85;;;;;;;;;;4972123;28;20030;-77
2024/01/12 08:02:46;;;;;;;18.20;10.27;;;;;;;;;;4970395;28;20035;-77
2024/01/12 08:05:11;;;;;;;22.60;11.43;;;;;;;;;;4978909;28;20046;-77
2024/01/12 08:07:37;;;;;;;23.52;11.40;;;;;;;;;;4974499;28;20045;-77
2024/01/12 08:10:02;;;;;;;21.67;11.05;;;;;;;;;;4962968;28;20038;-77
2024/01/12 08:12:28;;;;;;;24.00;10.02;;;;;;;;;;4987488;28;20037;-77
2024/01/12 08:14:53;;;;;;;18.98;9.93;;;;;;;;;;4973999;28;20070;-77
2024/01/12 08:17:18;;;;;;;17.05;8.45;;;;;;;;;;4982871;28;20050;-79
2024/01/12 08:19:43;;;;;;;16.30;8.70;;;;;;;;;;4983264;28;20066;-77
2024/01/12 08:22:08;;;;;;;14.96;7.44;;;;;;;;;;4984131;28;20035;-77
2024/01/12 08:24:33;;;;;;;18.08;8.70;;;;;;;;;;4978574;28;20070;-76
2024/01/12 08:26:59;;;;;;;17.17;8.23;;;;;;;;;;4984819;28;20155;-76
2024/01/12 08:29:24;;;;;;;16.90;9.40;;;;;;;;;;4991522;28;20073;-76
2024/01/12 08:31:51;;;;;;;15.80;8.50;;;;;;;;;;4982402;28;20773;-76
2024/01/12 08:34:19;;;;;;;18.43;9.60;;;;;;;;;;4997658;22;20081;-76
2024/01/12 08:36:44;;;;;;;15.87;7.97;;;;;;;;;;4997269;28;20407;-77
2024/01/12 08:39:10;;;;;;;17.80;9.27;;;;;;;;;;5003162;28;20027;-76
2024/01/12 08:41:36;;;;;;;17.65;8.73;;;;;;;;;;5009076;28;20030;-76
2024/01/12 08:44:01;;;;;;;16.55;8.23;;;;;;;;;;5148388;22;20060;-75
2024/01/12 08:46:26;;;;;;;18.10;9.18;;;;;;;;;;4987587;28;20538;-76
2024/01/12 08:49:02;;;;;;;;;;;;;;;;;;;;;
2024/01/12 08:51:27;;;;;;;15.80;8.75;;;;;;;;;;5004223;28;20414;-75
2024/01/12 08:53:52;;;;;;;15.93;8.80;;;;;;;;;;5002693;28;20041;-75
2024/01/12 08:56:18;;;;;;;18.60;9.50;;;;;;;;;;4997095;28;20022;-76
2024/01/12 08:58:43;;;;;;;19.90;10.20;;;;;;;;;;5004017;28;20026;-76
2024/01/12 09:01:08;;;;;;;15.85;8.23;;;;;;;;;;4998387;28;20045;-76
2024/01/12 09:03:33;;;;;;;18.68;9.16;;;;;;;;;;4998156;28;20034;-76
2024/01/12 09:05:58;;;;;;;17.85;8.98;;;;;;;;;;5001162;28;20058;-76
2024/01/12 09:08:24;;;;;;;19.05;9.27;;;;;;;;;;5000659;28;20109;-76
2024/01/12 09:10:49;;;;;;;17.65;9.15;;;;;;;;;;4997054;28;20491;-75
2024/01/12 09:13:14;;;;;;;19.77;8.82;;;;;;;;;;4996768;28;20101;-76
2024/01/12 09:15:40;;;;;;;21.00;9.80;;;;;;;;;;4996720;28;20403;-76
2024/01/12 09:18:06;;;;;;;14.98;7.50;;;;;;;;;;5000531;28;20037;-76
2024/01/12 09:20:32;;;;;;;15.65;7.32;;;;;;;;;;4999288;28;20042;-75
2024/01/12 09:22:57;;;;;;;15.35;8.80;;;;;;;;;;4986617;28;20042;-76
2024/01/12 09:25:23;;;;;;;15.38;7.75;;;;;;;;;;4997966;28;20054;-76
2024/01/12 09:27:50;;;;;;;17.00;8.77;;;;;;;;;;4995762;28;20042;-76
2024/01/12 09:30:16;;;;;;;18.55;8.90;;;;;;;;;;4998400;28;20108;-76
2024/01/12 09:32:41;;;;;;;18.02;9.10;;;;;;;;;;4989946;28;20108;-77
2024/01/12 09:35:06;;;;;;;16.58;8.45;;;;;;;;;;5001185;28;20073;-76
2024/01/12 09:37:31;;;;;;;18.02;8.60;;;;;;;;;;4992318;28;20054;-76
2024/01/12 09:39:56;;;;;;;15.32;9.27;;;;;;;;;;4997329;28;20439;-76
2024/01/12 09:42:23;;;;;;;18.10;9.30;;;;;;;;;;4976467;28;20053;-76
2024/01/12 09:44:50;;;;;;;19.08;9.35;;;;;;;;;;4998757;28;20118;-76
2024/01/12 09:47:16;;;;;;;20.50;9.55;;;;;;;;;;4982431;28;20061;-76
2024/01/12 09:49:41;;;;;;;19.27;9.02;;;;;;;;;;5000328;28;20031;-76
2024/01/12 09:52:07;;;;;;;18.02;9.10;;;;;;;;;;4967289;28;20027;-76
2024/01/12 09:54:33;;;;;;;21.95;10.13;;;;;;;;;;4994751;28;20026;-76
2024/01/12 09:56:59;;;;;;;20.58;9.07;;;;;;;;;;4998702;28;20116;-76
2024/01/12 09:59:25;;;;;;;18.48;8.80;;;;;;;;;;4995708;28;20491;-76
2024/01/12 10:01:50;;;;;;;17.92;9.00;;;;;;;;;;4998598;28;20683;-76
2024/01/12 10:04:15;;;;;;;20.38;9.57;;;;;;;;;;4984196;28;20069;-76
2024/01/12 10:06:41;;;;;;;15.40;7.80;;;;;;;;;;4996823;28;20031;-76
2024/01/12 10:09:06;;;;;;;15.95;8.93;;;;;;;;;;4996110;28;20018;-76
2024/01/12 10:11:37;;;;;;;13.77;7.13;;;;;;;;;;4996828;28;20479;-76
2024/01/12 10:14:04;;;;;;;17.00;8.05;;;;;;;;;;4983014;28;20526;-76
2024/01/12 10:16:29;;;;;;;19.55;9.52;;;;;;;;;;5001616;28;20398;-76
2024/01/12 10:18:58;;;;;;;17.95;7.93;;;;;;;;;;4985867;28;20028;-76
2024/01/12 10:21:24;;;;;;;14.73;7.40;;;;;;;;;;4980954;28;20022;-76
2024/01/12 10:23:51;;;;;;;17.15;8.05;;;;;;;;;;5003080;28;20452;-76
2024/01/12 10:26:16;;;;;;;12.88;5.90;;;;;;;;;;4978338;28;20406;-76
2024/01/12 10:28:42;;;;;;;13.80;6.28;;;;;;;;;;5000050;28;20022;-76
2024/01/12 10:31:07;;;;;;;12.38;5.90;;;;;;;;;;4993076;28;20033;-76
2024/01/12 10:33:32;;;;;;;14.07;6.35;;;;;;;;;;4989576;28;20168;-76
2024/01/12 10:36:11;;;;;;;13.93;6.40;;;;;;;;;;5002402;28;20059;-76
2024/01/12 10:38:37;;;;;;;11.35;5.65;;;;;;;;;;4995155;28;20069;-76
2024/01/12 10:41:04;;;;;;;15.60;5.72;;;;;;;;;;4977946;28;20062;-76
2024/01/12 10:43:32;;;;;;;14.20;6.13;;;;;;;;;;4999197;28;20141;-76
2024/01/12 10:45:59;;;;;;;12.80;6.70;;;;;;;;;;4999093;28;20030;-76
2024/01/12 10:48:28;;;;;;;10.88;5.22;;;;;;;;;;4992548;28;20029;-77
2024/01/12 10:50:58;;;;;;;12.93;5.45;;;;;;;;;;5000731;28;20026;-76
2024/01/12 10:53:27;;;;;;;11.63;4.75;;;;;;;;;;4995062;28;20045;-76
2024/01/12 10:55:54;;;;;;;13.57;5.82;;;;;;;;;;4999178;28;20034;-76
2024/01/12 10:58:20;;;;;;;13.63;5.68;;;;;;;;;;4998790;28;20031;-76
2024/01/12 11:00:46;;;;;;;13.32;6.03;;;;;;;;;;4994568;28;20030;-76
2024/01/12 11:03:13;;;;;;;11.27;4.93;;;;;;;;;;4994591;28;20049;-77
2024/01/12 11:05:40;;;;;;;11.10;4.85;;;;;;;;;;5001001;28;20038;-77
2024/01/12 11:08:09;;;;;;;11.93;5.72;;;;;;;;;;4999024;28;20052;-76
2024/01/12 11:10:35;;;;;;;11.60;5.90;;;;;;;;;;4997181;28;20041;-77
2024/01/12 11:13:01;;;;;;;11.77;5.28;;;;;;;;;;4980996;28;20039;-76
2024/01/12 11:15:26;;;;;;;11.05;5.05;;;;;;;;;;4992057;28;20037;-76
2024/01/12 11:17:51;;;;;;;13.15;5.18;;;;;;;;;;4995812;28;20105;-76
2024/01/12 11:20:17;;;;;;;10.57;4.93;;;;;;;;;;4995946;28;20030;-76
2024/01/12 11:22:46;;;;;;;11.45;5.90;;;;;;;;;;4995446;28;20080;-77
2024/01/12 11:25:12;;;;;;;13.93;6.20;;;;;;;;;;4993660;28;20033;-76
2024/01/12 11:27:38;;;;;;;14.02;6.65;;;;;;;;;;4998526;28;20106;-77
2024/01/12 11:30:08;;;;;;;11.60;5.78;;;;;;;;;;4977661;28;20420;-76
2024/01/12 11:32:33;;;;;;;14.80;6.93;;;;;;;;;;4997600;28;20022;-76
2024/01/12 11:35:18;;;;;;;12.68;6.70;;;;;;;;;;4996495;28;20037;-76
2024/01/12 11:37:58;;;;;;;16.83;6.85;;;;;;;;;;4997202;28;20065;-76
2024/01/12 11:40:24;;;;;;;15.93;7.43;;;;;;;;;;4996043;28;20029;-76
2024/01/12 11:42:50;;;;;;;17.20;7.60;;;;;;;;;;4973968;28;20034;-76
2024/01/12 11:45:15;;;;;;;15.90;7.45;;;;;;;;;;4977518;28;20090;-76
2024/01/12 11:47:42;;;;;;;14.98;7.53;;;;;;;;;;5001822;28;20065;-76
2024/01/12 11:50:07;;;;;;;20.40;8.85;;;;;;;;;;4998127;28;20023;-76
2024/01/12 11:52:33;;;;;;;17.88;8.52;;;;;;;;;;4995596;28;20430;-76
2024/01/12 11:54:58;;;;;;;18.83;9.80;;;;;;;;;;4995933;28;20026;-76
2024/01/12 11:57:26;;;;;;;20.05;9.90;;;;;;;;;;4995327;28;20030;-76
2024/01/12 11:59:57;;;;;;;18.52;10.02;;;;;;;;;;4975175;28;20026;-76
2024/01/12 12:02:23;;;;;;;22.23;10.73;;;;;;;;;;4992626;28;20069;-76
2024/01/12 12:04:51;;;;;;;25.13;10.60;;;;;;;;;;4999552;28;20108;-76
2024/01/12 12:07:16;;;;;;;21.98;10.30;;;;;;;;;;4997660;28;20790;-76
2024/01/12 12:09:41;;;;;;;20.00;9.60;;;;;;;;;;4997851;28;20029;-76
2024/01/12 12:12:08;;;;;;;25.88;9.98;;;;;;;;;;4995252;28;20030;-76
2024/01/12 12:14:33;;;;;;;19.52;10.48;;;;;;;;;;4980486;28;20030;-76
2024/01/12 12:16:58;;;;;;;19.05;9.52;;;;;;;;;;4998394;28;20041;-76
2024/01/12 12:19:24;;;;;;;22.42;9.98;;;;;;;;;;4980174;28;20117;-76
2024/01/12 12:21:49;;;;;;;19.80;9.82;;;;;;;;;;4997767;28;20057;-77
2024/01/12 12:24:14;;;;;;;26.30;11.35;;;;;;;;;;4993559;28;20109;-77
2024/01/12 12:26:41;;;;;;;22.38;10.68;;;;;;;;;;4992546;28;20117;-76
2024/01/12 12:29:06;;;;;;;25.17;11.75;;;;;;;;;;4985036;28;20160;-76
2024/01/12 12:31:32;;;;;;;25.90;11.70;;;;;;;;;;4974521;28;20527;-79
2024/01/12 12:33:57;;;;;;;29.17;12.73;;;;;;;;;;4995009;28;20061;-76
2024/01/12 12:36:23;;;;;;;28.83;13.02;;;;;;;;;;4995537;28;20039;-76
2024/01/12 12:38:48;;;;;;;37.85;17.30;;;;;;;;;;4995907;28;20092;-77
2024/01/12 12:41:13;;;;;;;24.55;12.07;;;;;;;;;;4999628;28;20041;-77
2024/01/12 12:43:40;;;;;;;23.13;11.05;;;;;;;;;;4992812;28;20062;-77
2024/01/12 12:46:05;;;;;;;23.38;10.95;;;;;;;;;;4989857;28;20507;-77
2024/01/12 12:48:31;;;;;;;22.25;11.45;;;;;;;;;;4996389;28;20070;-76
2024/01/12 12:50:56;;;;;;;24.27;11.43;;;;;;;;;;4991342;28;20023;-75
2024/01/12 12:53:22;;;;;;;24.65;11.10;;;;;;;;;;4992629;28;20030;-76
2024/01/12 12:55:47;;;;;;;24.08;10.13;;;;;;;;;;4996914;28;20054;-76
2024/01/12 12:58:13;;;;;;;22.13;10.98;;;;;;;;;;4995589;28;20042;-76
2024/01/12 13:00:38;;;;;;;26.50;11.45;;;;;;;;;;4997162;28;20034;-76
2024/01/12 13:03:04;;;;;;;19.60;9.40;;;;;;;;;;4997295;28;20077;-76
2024/01/12 13:05:29;;;;;;;20.98;9.95;;;;;;;;;;4982232;28;20061;-76
2024/01/12 13:07:55;;;;;;;23.42;10.90;;;;;;;;;;4997859;28;20040;-76
2024/01/12 13:10:21;;;;;;;24.60;11.48;;;;;;;;;;4998535;28;20021;-77
2024/01/12 13:12:46;;;;;;;21.55;10.73;;;;;;;;;;4997871;28;20503;-75
2024/01/12 13:15:11;;;;;;;22.23;10.68;;;;;;;;;;4981518;28;20053;-76
2024/01/12 13:17:36;;;;;;;23.40;11.20;;;;;;;;;;4991769;28;20026;-76
2024/01/12 13:20:03;;;;;;;28.20;11.73;;;;;;;;;;4995045;28;20490;-75
2024/01/12 13:22:28;;;;;;;22.67;11.07;;;;;;;;;;4996584;28;20038;-76
2024/01/12 13:24:53;;;;;;;24.25;11.18;;;;;;;;;;5000997;28;20049;-76
2024/01/12 13:27:18;;;;;;;22.42;11.50;;;;;;;;;;4997582;28;20053;-76
2024/01/12 13:29:44;;;;;;;21.08;10.48;;;;;;;;;;4995484;28;20031;-76
2024/01/12 13:32:10;;;;;;;21.02;10.23;;;;;;;;;;5000585;28;20045;-76
2024/01/12 13:34:35;;;;;;;22.92;10.35;;;;;;;;;;4996624;28;20030;-76
2024/01/12 13:37:01;;;;;;;22.45;10.80;;;;;;;;;;5003657;28;20021;-76
2024/01/12 13:39:26;;;;;;;20.98;9.85;;;;;;;;;;5000059;28;20407;-76
2024/01/12 13:41:51;;;;;;;22.90;11.15;;;;;;;;;;5004000;28;20026;-77
2024/01/12 13:44:17;;;;;;;20.00;10.60;;;;;;;;;;4986603;28;20034;-76
2024/01/12 13:46:42;;;;;;;23.52;11.52;;;;;;;;;;4999406;28;20026;-76
2024/01/12 13:49:07;;;;;;;22.77;10.38;;;;;;;;;;5001135;28;20061;-76
2024/01/12 13:51:33;;;;;;;21.23;10.70;;;;;;;;;;4979756;28;20029;-76
2024/01/12 13:53:59;;;;;;;23.80;10.95;;;;;;;;;;4998217;28;20572;-76
2024/01/12 13:56:25;;;;;;;21.75;11.10;;;;;;;;;;4977676;28;20092;-76
2024/01/12 13:58:50;;;;;;;23.52;11.30;;;;;;;;;;4999926;28;20034;-76
2024/01/12 14:01:15;;;;;;;24.50;11.52;;;;;;;;;;4996552;28;20639;-77
2024/01/12 14:03:40;;;;;;;20.92;10.02;;;;;;;;;;4993064;28;20088;-75
2024/01/12 14:06:06;;;;;;;23.33;11.88;;;;;;;;;;4996326;28;20038;-76
2024/01/12 14:08:32;;;;;;;21.35;12.00;;;;;;;;;;4998582;28;20034;-76
2024/01/12 14:10:57;;;;;;;22.88;10.80;;;;;;;;;;4999294;28;20045;-76
2024/01/12 14:13:23;;;;;;;23.08;11.80;;;;;;;;;;4999921;28;20027;-76